Time;durP1;ratioP1;P1;durP2;ratioP2;P2;SDS_P1;SDS_P2;PMS_P1;PMS_P2;Temp;Humidity;BMP_temperature;BMP_pressure;BME280_temperature;BME280_humidity;BME280_pressure;Samples;Min_cycle;Max_cycle;Signal;HPM_P1;HPM_P2
2022/06/02 00:02:09;;;;;;;3.95;1.77;;;13.90;99.90;;;;;;5034995;28;20042;-66
2022/06/02 00:04:48;;;;;;;4.82;1.60;;;13.80;99.90;;;;;;5042424;28;20056;-65
2022/06/02 00:07:28;;;;;;;3.00;1.70;;;13.70;99.90;;;;;;5044953;28;20132;-66
2022/06/02 00:10:17;;;;;;;3.42;1.58;;;13.80;99.90;;;;;;5025078;28;20053;-65
2022/06/02 00:12:57;;;;;;;2.85;1.58;;;13.70;99.90;;;;;;5026595;28;20516;-66
2022/06/02 00:15:26;;;;;;;6.35;1.63;;;13.70;99.90;;;;;;5016550;28;20124;-65
2022/06/02 00:18:05;;;;;;;3.25;1.85;;;13.60;99.90;;;;;;5025498;28;20049;-65
2022/06/02 00:20:38;;;;;;;3.33;1.58;;;13.50;99.90;;;;;;5028097;28;20398;-65
2022/06/02 00:23:32;;;;;;;3.47;2.00;;;13.50;99.90;;;;;;5027027;28;20508;-65
2022/06/02 00:26:11;;;;;;;3.17;1.67;;;13.50;99.90;;;;;;5027648;28;20053;-65
2022/06/02 00:29:08;;;;;;;4.78;1.85;;;13.50;99.90;;;;;;5025275;28;20061;-65
2022/06/02 00:31:45;;;;;;;3.55;1.73;;;13.50;99.90;;;;;;5027702;28;20509;-65
2022/06/02 00:34:23;;;;;;;4.88;1.80;;;13.40;99.90;;;;;;5006030;28;20042;-65
2022/06/02 00:37:04;;;;;;;5.63;1.88;;;13.40;99.90;;;;;;5024930;28;20046;-65
2022/06/02 00:39:33;;;;;;;4.13;1.80;;;13.30;99.90;;;;;;5027278;28;20053;-65
2022/06/02 00:42:37;;;;;;;5.30;2.03;;;13.30;99.90;;;;;;5026216;28;20145;-65
2022/06/02 00:45:12;;;;;;;4.53;1.95;;;13.20;99.90;;;;;;5027506;28;20515;-65
2022/06/02 00:47:51;;;;;;;4.88;1.92;;;13.10;99.90;;;;;;5026079;28;20109;-65
2022/06/02 00:50:58;;;;;;;4.82;1.98;;;13.00;99.90;;;;;;5027286;28;20065;-65
2022/06/02 00:59:59;;;;;;;6.40;2.05;;;13.00;99.90;;;;;;5035292;28;20049;-66
2022/06/02 01:02:29;;;;;;;6.10;2.30;;;13.00;99.90;;;;;;5037010;28;20132;-65
2022/06/02 01:05:00;;;;;;;4.88;2.10;;;13.00;99.90;;;;;;5029978;28;20049;-66
2022/06/02 01:07:33;;;;;;;3.42;1.90;;;13.00;99.90;;;;;;5030630;28;20055;-66
2022/06/02 01:10:00;;;;;;;3.80;2.10;;;12.90;99.90;;;;;;5030929;28;20033;-66
2022/06/02 01:12:39;;;;;;;3.97;1.98;;;12.90;99.90;;;;;;5030165;28;20053;-65
2022/06/02 01:15:44;;;;;;;5.63;1.90;;;12.90;99.90;;;;;;5017218;28;20041;-65
2022/06/02 01:18:33;;;;;;;6.38;2.47;;;12.80;99.90;;;;;;5028955;28;20044;-65
2022/06/02 01:21:37;;;;;;;3.50;2.00;;;12.80;99.90;;;;;;5030290;28;20042;-65
2022/06/02 01:24:25;;;;;;;2.95;1.90;;;12.70;99.90;;;;;;5020062;28;20049;-66
2022/06/02 01:27:30;;;;;;;3.00;2.00;;;12.70;99.90;;;;;;5030070;28;20049;-65
2022/06/02 01:30:12;;;;;;;5.35;2.20;;;12.70;99.90;;;;;;5030337;28;20652;-66
2022/06/02 01:32:54;;;;;;;4.90;1.95;;;12.70;99.90;;;;;;5030062;28;20057;-65
2022/06/02 01:35:42;;;;;;;3.92;2.40;;;12.70;99.90;;;;;;5030399;28;20049;-65
2022/06/02 01:38:17;;;;;;;3.25;1.95;;;12.70;99.90;;;;;;5030580;28;20602;-66
2022/06/02 01:41:05;;;;;;;4.10;2.13;;;12.60;99.90;;;;;;5030859;28;20524;-66
2022/06/02 01:43:53;;;;;;;3.30;2.00;;;12.60;99.90;;;;;;5030512;28;20080;-65
2022/06/02 01:46:37;;;;;;;3.85;1.73;;;12.50;99.90;;;;;;5029912;28;20452;-66
2022/06/02 01:49:30;;;;;;;2.63;1.70;;;12.50;99.90;;;;;;5029857;28;20152;-65
2022/06/02 01:51:57;;;;;;;;;;;12.50;99.90;;;;;;5046242;28;20051;-65
2022/06/02 01:54:41;;;;;;;2.90;1.90;;;12.40;99.90;;;;;;5034880;28;20295;-65
2022/06/02 01:57:16;;;;;;;4.38;1.92;;;12.40;99.90;;;;;;5034825;28;20046;-65
2022/06/02 02:00:08;;;;;;;3.38;1.80;;;12.30;99.90;;;;;;5031718;28;20151;-65
2022/06/02 02:03:12;;;;;;;3.83;2.17;;;12.30;99.90;;;;;;5027401;28;20054;-65
2022/06/02 02:05:40;;;;;;;5.82;2.78;;;12.20;99.90;;;;;;5029454;28;20053;-65
2022/06/02 02:08:39;;;;;;;3.47;2.17;;;12.20;99.90;;;;;;5029540;28;20052;-66
2022/06/02 02:11:19;;;;;;;3.22;2.20;;;12.10;99.90;;;;;;5028593;28;20142;-66
2022/06/02 02:13:52;;;;;;;3.30;1.80;;;12.10;99.90;;;;;;5030302;28;20063;-65
2022/06/02 02:16:34;;;;;;;3.58;2.13;;;12.10;99.90;;;;;;5030174;28;20053;-65
2022/06/02 02:19:02;;;;;;;3.80;2.15;;;12.10;99.90;;;;;;5030371;28;20094;-65
2022/06/02 02:21:59;;;;;;;4.10;2.33;;;12.10;99.90;;;;;;5029718;28;20519;-65
2022/06/02 02:24:54;;;;;;;5.30;2.30;;;12.20;99.90;;;;;;5030161;28;20073;-65
2022/06/02 02:28:02;;;;;;;4.28;2.17;;;12.20;99.90;;;;;;5029807;28;20547;-65
2022/06/02 02:30:50;;;;;;;5.57;2.10;;;12.20;99.90;;;;;;5030767;28;20061;-65
2022/06/02 02:33:40;;;;;;;3.28;2.30;;;12.20;99.90;;;;;;5029926;28;20041;-65
2022/06/02 02:36:37;;;;;;;4.40;2.40;;;12.20;99.90;;;;;;5030132;28;20125;-66
2022/06/02 02:39:13;;;;;;;4.28;2.20;;;12.20;99.90;;;;;;5029988;28;20061;-65
2022/06/02 02:41:58;;;;;;;4.80;2.30;;;12.10;99.90;;;;;;5029488;28;20528;-65
2022/06/02 02:44:57;;;;;;;3.22;2.10;;;12.10;99.90;;;;;;5029982;28;20044;-65
2022/06/02 02:47:49;;;;;;;4.13;2.17;;;12.00;99.90;;;;;;5019405;28;20038;-65
2022/06/02 02:50:40;;;;;;;3.58;2.28;;;11.90;99.90;;;;;;5038297;28;20054;-65
2022/06/02 02:53:25;;;;;;;4.45;2.30;;;11.90;99.90;;;;;;5012220;28;20141;-65
2022/06/02 02:56:02;;;;;;;6.35;2.67;;;11.80;99.90;;;;;;5040526;28;20441;-65
2022/06/02 02:58:50;;;;;;;4.32;2.22;;;11.70;99.90;;;;;;5039893;28;20044;-65
2022/06/02 03:01:23;;;;;;;5.57;2.70;;;11.70;99.90;;;;;;5029899;28;20049;-65
2022/06/02 03:04:07;;;;;;;4.25;2.40;;;11.70;99.90;;;;;;5029226;28;20041;-65
2022/06/02 03:06:38;;;;;;;7.40;2.70;;;11.70;99.90;;;;;;5029466;28;20551;-66
2022/06/02 03:09:13;;;;;;;4.32;2.80;;;11.60;99.90;;;;;;5027722;28;20049;-66
2022/06/02 03:11:52;;;;;;;5.70;2.80;;;11.60;99.90;;;;;;5028379;28;20067;-66
2022/06/02 03:14:58;;;;;;;5.28;2.60;;;11.50;99.90;;;;;;5037852;28;20068;-66
2022/06/02 03:17:43;;;;;;;4.05;2.65;;;11.40;99.90;;;;;;5022358;28;20041;-66
2022/06/02 03:20:16;;;;;;;4.30;2.60;;;11.30;99.90;;;;;;5025304;28;20056;-66
2022/06/02 03:23:08;;;;;;;8.18;3.10;;;11.30;99.90;;;;;;5029549;28;20124;-66
2022/06/02 03:25:53;;;;;;;4.60;3.23;;;11.20;99.90;;;;;;5017740;28;20064;-66
2022/06/02 03:28:38;;;;;;;4.38;3.05;;;11.20;99.90;;;;;;5040363;28;20303;-65
2022/06/02 03:31:24;;;;;;;5.50;2.80;;;11.20;99.90;;;;;;5039481;28;20416;-65
2022/06/02 03:34:17;;;;;;;7.20;3.10;;;11.20;99.90;;;;;;5032791;28;20045;-66
2022/06/02 03:37:16;;;;;;;8.75;3.45;;;11.10;99.90;;;;;;5045955;28;20124;-66
2022/06/02 03:40:04;;;;;;;6.57;2.92;;;11.10;99.90;;;;;;5048172;28;20045;-66
2022/06/02 03:42:55;;;;;;;4.72;3.10;;;11.10;99.90;;;;;;5022931;28;20144;-66
2022/06/02 03:45:38;;;;;;;5.68;3.15;;;11.10;99.90;;;;;;5033526;28;20480;-66
2022/06/02 03:48:32;;;;;;;6.95;2.90;;;11.10;99.90;;;;;;5030344;28;20040;-66
2022/06/02 03:51:16;;;;;;;5.07;3.25;;;11.10;99.90;;;;;;5020636;28;20033;-66
2022/06/02 03:54:11;;;;;;;7.13;3.00;;;11.10;99.90;;;;;;5029634;28;20052;-66
2022/06/02 03:57:02;;;;;;;6.97;3.03;;;11.00;99.90;;;;;;5013789;28;20046;-66
2022/06/02 03:59:29;;;;;;;7.43;3.20;;;11.00;99.90;;;;;;5031690;28;20127;-66
2022/06/02 04:02:05;;;;;;;8.10;3.15;;;11.10;99.90;;;;;;5027305;28;20482;-66
2022/06/02 04:04:47;;;;;;;8.82;3.13;;;11.10;99.90;;;;;;5025884;28;20144;-66
2022/06/02 04:07:22;;;;;;;6.17;3.13;;;11.10;99.90;;;;;;5038796;28;20075;-66
2022/06/02 04:09:59;;;;;;;5.93;3.47;;;11.20;99.90;;;;;;5027679;28;20041;-65
2022/06/02 04:16:08;;;;;;;4.88;2.90;;;11.30;99.90;;;;;;5022661;28;20125;-65
2022/06/02 04:19:00;;;;;;;5.75;3.03;;;11.40;99.90;;;;;;5014555;28;20053;-65
2022/06/02 04:21:45;;;;;;;7.30;3.60;;;11.50;99.90;;;;;;5024620;28;20505;-65
2022/06/02 04:24:34;;;;;;;4.25;3.17;;;11.50;99.90;;;;;;5026661;28;20083;-65
2022/06/02 04:27:17;;;;;;;5.25;3.42;;;11.50;99.90;;;;;;5027067;28;20469;-65
2022/06/02 04:30:03;;;;;;;6.35;3.65;;;11.50;99.90;;;;;;5026372;28;20707;-65
2022/06/02 04:32:51;;;;;;;4.70;3.45;;;11.60;99.90;;;;;;5026950;28;20045;-65
2022/06/02 04:35:18;;;;;;;4.95;3.35;;;11.60;99.90;;;;;;5031255;28;20045;-65
2022/06/02 04:38:07;;;;;;;5.70;3.53;;;11.60;99.90;;;;;;5033033;28;20041;-65
2022/06/02 04:40:37;;;;;;;5.18;3.35;;;11.60;99.90;;;;;;5028728;28;20136;-65
2022/06/02 04:43:33;;;;;;;4.70;3.33;;;11.60;99.90;;;;;;5031434;28;20053;-65
2022/06/02 04:46:22;;;;;;;4.95;3.20;;;11.60;99.90;;;;;;5023729;28;20046;-65
2022/06/02 04:48:52;;;;;;;7.47;3.70;;;11.60;99.90;;;;;;5026978;28;20044;-67
2022/06/02 04:51:20;;;;;;;5.50;3.42;;;11.70;99.90;;;;;;5025532;28;20404;-66
2022/06/02 04:54:22;;;;;;;5.82;3.50;;;11.70;99.90;;;;;;5030571;28;20069;-65
2022/06/02 04:56:56;;;;;;;7.13;3.60;;;11.80;99.90;;;;;;5031588;28;20041;-65
2022/06/02 04:59:52;;;;;;;5.78;3.40;;;11.80;99.90;;;;;;5025171;28;20461;-65
2022/06/02 05:02:23;;;;;;;5.85;3.25;;;11.80;99.90;;;;;;5025400;28;20443;-66
2022/06/02 05:05:09;;;;;;;5.25;3.25;;;11.90;99.90;;;;;;5031438;28;20051;-65
2022/06/02 05:07:36;;;;;;;9.20;3.50;;;11.90;99.90;;;;;;5031749;28;20132;-65
2022/06/02 05:10:19;;;;;;;5.57;3.50;;;11.90;99.90;;;;;;5031765;28;20067;-66
2022/06/02 05:13:08;;;;;;;7.28;3.40;;;11.90;99.90;;;;;;5030421;28;20072;-66
2022/06/02 05:16:12;;;;;;;6.90;3.55;;;12.00;99.90;;;;;;5038872;28;20496;-65
2022/06/02 05:18:39;;;;;;;7.35;3.20;;;12.10;99.90;;;;;;5033102;28;20069;-66
2022/06/02 05:21:09;;;;;;;4.57;3.42;;;12.10;99.90;;;;;;5031297;28;20080;-66
2022/06/02 05:23:57;;;;;;;9.30;3.60;;;12.10;99.90;;;;;;5027590;28;20583;-66
2022/06/02 05:26:27;;;;;;;5.03;2.70;;;12.20;99.90;;;;;;5031929;28;20092;-66
2022/06/02 05:29:27;;;;;;;5.15;3.22;;;12.30;99.90;;;;;;5026488;28;20044;-66
2022/06/02 05:32:20;;;;;;;6.10;3.20;;;12.40;99.90;;;;;;5029409;28;20060;-66
2022/06/02 05:35:25;;;;;;;6.80;3.40;;;12.50;99.90;;;;;;5033556;28;20128;-66
2022/06/02 05:38:00;;;;;;;5.72;3.10;;;12.60;99.90;;;;;;5029891;28;20505;-67
2022/06/02 05:40:58;;;;;;;6.60;3.67;;;12.60;99.90;;;;;;5040443;28;20049;-66
2022/06/02 05:44:07;;;;;;;8.23;3.33;;;12.60;99.90;;;;;;5035397;28;20125;-66
2022/06/02 05:46:56;;;;;;;5.00;2.90;;;12.70;99.90;;;;;;5037769;28;20396;-67
2022/06/02 05:49:38;;;;;;;6.22;2.80;;;12.80;99.90;;;;;;5031220;28;20044;-65
2022/06/02 05:52:13;;;;;;;;;;;12.90;99.90;;;;;;5030222;28;20053;-65
2022/06/02 05:54:49;;;;;;;5.72;3.20;;;13.00;99.90;;;;;;5030827;28;19925;-66
2022/06/02 05:57:28;;;;;;;7.07;3.28;;;13.10;99.90;;;;;;5030976;28;20045;-66
2022/06/02 06:00:11;;;;;;;5.30;2.75;;;13.10;99.90;;;;;;5030314;28;20052;-66
2022/06/02 06:03:04;;;;;;;5.70;3.10;;;13.20;99.90;;;;;;5015229;28;20050;-66
2022/06/02 06:05:57;;;;;;;6.50;3.10;;;13.30;99.90;;;;;;5030002;28;20522;-66
2022/06/02 06:08:33;;;;;;;5.05;3.00;;;13.40;99.90;;;;;;5034364;28;20067;-66
2022/06/02 06:11:34;;;;;;;4.65;2.70;;;13.40;99.90;;;;;;5016951;28;20469;-66
2022/06/02 06:14:12;;;;;;;7.75;2.78;;;13.50;99.90;;;;;;5017761;28;20087;-67
2022/06/02 06:16:54;;;;;;;4.68;2.80;;;13.60;99.90;;;;;;5033229;28;20132;-66
2022/06/02 06:20:02;;;;;;;4.22;2.72;;;13.60;99.90;;;;;;5040547;28;20068;-65
2022/06/02 06:22:57;;;;;;;4.18;2.72;;;13.70;99.90;;;;;;5029875;28;20049;-66
2022/06/02 06:25:33;;;;;;;5.75;3.00;;;13.80;99.90;;;;;;5029677;28;20128;-66
2022/06/02 06:28:14;;;;;;;9.60;2.90;;;13.90;99.90;;;;;;5030746;28;20479;-66
2022/06/02 06:31:05;;;;;;;6.18;2.50;;;14.00;99.90;;;;;;5025047;28;20041;-66
2022/06/02 06:33:57;;;;;;;5.05;2.30;;;14.10;99.90;;;;;;5033931;28;20056;-65
2022/06/02 06:36:39;;;;;;;3.67;2.17;;;14.10;99.90;;;;;;5037430;28;20140;-66
2022/06/02 06:39:43;;;;;;;4.45;2.85;;;14.10;99.90;;;;;;5024186;28;20139;-67
2022/06/02 06:42:22;;;;;;;3.90;2.20;;;14.20;99.90;;;;;;5033927;28;20136;-66
2022/06/02 06:45:01;;;;;;;4.07;2.30;;;14.20;99.90;;;;;;5037414;28;20041;-66
2022/06/02 06:47:39;;;;;;;5.03;2.70;;;14.30;99.90;;;;;;5043061;28;20530;-66
2022/06/02 06:50:20;;;;;;;3.13;2.20;;;14.50;99.90;;;;;;5035072;28;20415;-66
2022/06/02 06:52:53;;;;;;;5.13;2.30;;;14.50;99.90;;;;;;5013502;28;20501;-66
2022/06/02 06:55:45;;;;;;;3.33;1.98;;;14.70;99.90;;;;;;5033675;28;20503;-66
2022/06/02 06:58:34;;;;;;;5.20;1.80;;;14.70;99.90;;;;;;5036802;28;20052;-66
2022/06/02 07:01:14;;;;;;;8.85;2.70;;;14.80;99.90;;;;;;5030962;28;20052;-65
2022/06/02 07:04:05;;;;;;;4.97;2.20;;;15.00;99.90;;;;;;5033640;28;20149;-65
2022/06/02 07:06:58;;;;;;;4.30;2.05;;;15.00;99.90;;;;;;5030149;28;20132;-66
2022/06/02 07:09:44;;;;;;;3.17;2.08;;;15.10;99.90;;;;;;5031106;28;20045;-67
2022/06/02 07:15:14;;;;;;;3.65;2.13;;;15.10;99.90;;;;;;5047614;28;20044;-66
2022/06/02 07:17:55;;;;;;;3.10;1.70;;;15.10;99.90;;;;;;5023842;28;20057;-65
2022/06/02 07:21:07;;;;;;;4.45;2.13;;;15.20;99.90;;;;;;5028930;28;20045;-65
2022/06/02 07:23:43;;;;;;;3.95;1.73;;;15.40;99.90;;;;;;5034827;28;20597;-65
2022/06/02 07:26:46;;;;;;;4.53;2.10;;;15.60;99.90;;;;;;5023598;28;20045;-65
2022/06/02 07:29:49;;;;;;;4.38;1.80;;;15.60;99.90;;;;;;5033694;28;20060;-66
2022/06/02 07:32:31;;;;;;;4.60;1.95;;;15.60;99.90;;;;;;4969524;28;20064;-66
2022/06/02 07:35:04;;;;;;;3.65;1.85;;;15.60;99.90;;;;;;5032609;28;20060;-66
2022/06/02 07:37:49;;;;;;;3.20;1.60;;;15.70;99.90;;;;;;5031829;28;20053;-66
2022/06/02 07:40:48;;;;;;;4.68;2.15;;;15.80;99.90;;;;;;5026267;28;20153;-66
2022/06/02 07:43:40;;;;;;;4.22;2.10;;;15.70;99.90;;;;;;5018001;28;20042;-66
2022/06/02 07:46:16;;;;;;;6.70;1.95;;;15.80;99.90;;;;;;5007999;28;20152;-66
2022/06/02 07:49:01;;;;;;;3.95;1.83;;;15.90;99.90;;;;;;5033008;28;20694;-66
2022/06/02 07:51:31;;;;;;;4.55;1.70;;;16.10;99.90;;;;;;5014400;28;20417;-65
2022/06/02 07:54:05;;;;;;;10.25;2.72;;;16.20;99.90;;;;;;5035931;28;20555;-64
2022/06/02 07:57:08;;;;;;;4.45;1.60;;;16.20;99.90;;;;;;5026628;28;20065;-66
2022/06/02 08:00:10;;;;;;;4.32;1.80;;;16.30;99.90;;;;;;4905476;29;20515;-65
2022/06/02 08:02:55;;;;;;;4.90;1.95;;;16.30;99.90;;;;;;4931923;28;20065;-65
2022/06/02 08:05:30;;;;;;;;;;;16.40;99.90;;;;;;4962194;28;20055;-65
2022/06/02 08:08:01;;;;;;;5.28;2.00;;;16.50;99.90;;;;;;4963467;28;20023;-65
2022/06/02 08:11:05;;;;;;;4.43;1.95;;;16.50;99.90;;;;;;4957665;28;20047;-66
2022/06/02 08:13:51;;;;;;;4.13;1.90;;;16.60;99.90;;;;;;4944007;28;20506;-66
2022/06/02 08:16:29;;;;;;;3.03;1.80;;;16.60;99.90;;;;;;4954559;28;20069;-66
2022/06/02 08:19:09;;;;;;;4.32;1.70;;;16.70;99.90;;;;;;4945607;28;20542;-66
2022/06/02 08:22:01;;;;;;;3.22;1.60;;;16.80;99.90;;;;;;4947861;28;20521;-66
2022/06/02 08:24:33;;;;;;;3.65;1.70;;;16.80;99.90;;;;;;4946861;28;20062;-66
2022/06/02 08:27:06;;;;;;;4.57;1.90;;;16.90;99.90;;;;;;4944620;28;20449;-66
2022/06/02 08:29:41;;;;;;;4.60;1.73;;;16.80;99.90;;;;;;4952945;28;20490;-66
2022/06/02 08:32:20;;;;;;;2.72;1.60;;;17.00;99.90;;;;;;4937149;28;20577;-66
2022/06/02 08:35:05;;;;;;;2.33;1.30;;;17.10;99.90;;;;;;5027927;28;20080;-66
2022/06/02 08:37:44;;;;;;;4.38;1.80;;;17.30;99.90;;;;;;5030194;28;20124;-66
2022/06/02 08:40:47;;;;;;;4.80;1.48;;;17.40;99.90;;;;;;5029022;28;20390;-65
2022/06/02 08:43:40;;;;;;;2.83;1.92;;;17.50;99.90;;;;;;5045798;28;20049;-65
2022/06/02 08:46:22;;;;;;;3.33;1.67;;;17.60;99.90;;;;;;5024647;28;20049;-65
2022/06/02 08:49:04;;;;;;;3.28;1.60;;;17.70;99.90;;;;;;5027590;28;20044;-65
2022/06/02 08:51:44;;;;;;;;;;;17.80;99.90;;;;;;5026620;28;20041;-64
2022/06/02 08:54:26;;;;;;;4.90;1.70;;;17.90;99.90;;;;;;5040053;28;20343;-66
2022/06/02 08:57:22;;;;;;;2.63;1.60;;;17.90;99.90;;;;;;5044015;28;20049;-67
2022/06/02 09:00:07;;;;;;;4.15;1.75;;;17.80;99.90;;;;;;5020903;28;20071;-65
2022/06/02 09:03:01;;;;;;;4.82;1.65;;;17.80;99.90;;;;;;5026093;28;20487;-66
2022/06/02 09:06:02;;;;;;;6.90;1.42;;;17.80;99.90;;;;;;5027128;28;20065;-67
2022/06/02 09:08:57;;;;;;;2.33;1.33;;;17.90;99.90;;;;;;5028560;28;20516;-66
2022/06/02 09:11:32;;;;;;;4.95;1.45;;;18.20;99.90;;;;;;5026647;28;20125;-66
2022/06/02 09:14:37;;;;;;;3.30;1.50;;;18.30;99.90;;;;;;5044425;28;20541;-67
2022/06/02 09:17:36;;;;;;;2.78;1.40;;;18.30;99.90;;;;;;5017939;28;20064;-66
2022/06/02 09:20:12;;;;;;;5.30;1.40;;;18.30;99.90;;;;;;5031356;28;20478;-66
2022/06/02 09:23:19;;;;;;;2.20;1.40;;;18.40;99.90;;;;;;5031481;28;20049;-67
2022/06/02 09:26:26;;;;;;;3.97;1.50;;;18.30;99.90;;;;;;5025974;28;20081;-66
2022/06/02 09:29:18;;;;;;;3.72;1.30;;;18.60;99.90;;;;;;5026753;28;20495;-67
2022/06/02 09:32:13;;;;;;;3.05;1.20;;;18.70;99.90;;;;;;5032722;28;20033;-66
2022/06/02 09:35:05;;;;;;;2.60;1.25;;;18.80;99.90;;;;;;5033966;28;20132;-66
2022/06/02 09:37:50;;;;;;;4.28;1.15;;;18.80;99.90;;;;;;5031193;28;20045;-66
2022/06/02 09:40:42;;;;;;;2.83;1.10;;;19.20;99.90;;;;;;5027847;28;20553;-66
2022/06/02 09:43:36;;;;;;;2.55;1.17;;;19.60;99.90;;;;;;5038175;28;20045;-66
2022/06/02 09:46:17;;;;;;;3.20;1.48;;;20.10;99.90;;;;;;5025547;28;20408;-67
2022/06/02 09:49:52;;;;;;;1.80;1.20;;;19.70;99.90;;;;;;5034513;28;20033;-66
2022/06/02 09:52:49;;;;;;;3.13;1.50;;;20.40;99.90;;;;;;5037407;28;20111;-65
2022/06/02 09:55:35;;;;;;;3.17;1.42;;;20.70;99.90;;;;;;5040334;28;20049;-65
2022/06/02 09:58:32;;;;;;;3.38;1.20;;;20.90;99.90;;;;;;5025064;28;20045;-66
2022/06/02 10:01:12;;;;;;;3.35;1.52;;;20.90;99.90;;;;;;5047789;28;20083;-66
2022/06/02 10:03:52;;;;;;;3.88;1.48;;;21.20;99.90;;;;;;5030717;28;20119;-66
2022/06/02 10:06:58;;;;;;;3.08;1.40;;;21.50;99.90;;;;;;5031330;28;20105;-66
2022/06/02 10:09:54;;;;;;;3.63;1.35;;;21.80;99.90;;;;;;5028706;28;20037;-66
2022/06/02 10:12:54;;;;;;;2.47;1.30;;;21.90;99.90;;;;;;5032436;28;20046;-66
2022/06/02 10:15:48;;;;;;;4.43;1.50;;;21.40;99.90;;;;;;5023426;28;20548;-67
2022/06/02 10:18:48;;;;;;;5.45;1.13;;;21.00;99.90;;;;;;5024378;28;20115;-66
2022/06/02 10:21:30;;;;;;;2.72;1.38;;;21.00;99.90;;;;;;5031875;28;20048;-66
2022/06/02 10:24:21;;;;;;;2.53;1.08;;;21.30;99.90;;;;;;5038206;28;20049;-66
2022/06/02 10:27:29;;;;;;;3.00;1.50;;;21.50;99.90;;;;;;5039182;28;20572;-67
2022/06/02 10:30:42;;;;;;;5.57;1.38;;;21.70;99.90;;;;;;5034233;28;20045;-66
2022/06/02 10:33:19;;;;;;;3.42;1.70;;;21.90;99.90;;;;;;5033692;28;20045;-64
2022/06/02 10:36:31;;;;;;;6.22;1.67;;;22.10;99.90;;;;;;5041626;28;20044;-65
2022/06/02 10:39:16;;;;;;;5.95;1.33;;;22.20;99.90;;;;;;5019733;28;20056;-64
2022/06/02 10:42:15;;;;;;;2.80;1.52;;;22.10;99.90;;;;;;5035712;28;20654;-66
2022/06/02 10:45:18;;;;;;;5.97;1.42;;;22.30;99.80;;;;;;4929868;29;20052;-66
2022/06/02 10:48:24;;;;;;;4.45;1.20;;;22.50;99.90;;;;;;4928836;29;20096;-68
2022/06/02 10:51:38;;;;;;;2.05;1.10;;;22.60;98.60;;;;;;4923353;29;20122;-66
2022/06/02 10:54:19;;;;;;;2.72;1.20;;;23.10;98.10;;;;;;4930622;29;20058;-65
2022/06/02 10:56:56;;;;;;;4.50;1.20;;;23.70;97.10;;;;;;4930888;29;20048;-65
2022/06/02 11:00:03;;;;;;;3.30;1.40;;;23.80;96.10;;;;;;4930556;29;20418;-66
2022/06/02 11:02:38;;;;;;;4.82;1.65;;;23.80;95.90;;;;;;4924039;29;20154;-67
2022/06/02 11:05:24;;;;;;;2.47;1.40;;;23.90;96.00;;;;;;4929390;29;20542;-66
2022/06/02 11:08:11;;;;;;;3.65;1.58;;;23.80;96.20;;;;;;4929535;29;20060;-66
2022/06/02 11:11:19;;;;;;;3.03;1.48;;;23.80;95.40;;;;;;4945075;29;20063;-65
2022/06/02 11:14:30;;;;;;;3.63;1.30;;;23.70;95.40;;;;;;4948586;29;20047;-64
2022/06/02 11:17:18;;;;;;;3.00;1.50;;;23.90;95.40;;;;;;4889848;29;20440;-64
2022/06/02 11:20:10;;;;;;;3.25;1.27;;;24.00;94.90;;;;;;4909096;29;20150;-65
2022/06/02 11:22:46;;;;;;;4.35;1.58;;;24.70;94.30;;;;;;4979650;28;20061;-65
2022/06/02 11:26:11;;;;;;;2.88;1.33;;;25.30;93.10;;;;;;4985141;28;20571;-65
2022/06/02 11:29:16;;;;;;;3.35;1.27;;;25.50;93.10;;;;;;4985273;28;20137;-65
2022/06/02 11:32:11;;;;;;;2.88;1.52;;;25.60;93.20;;;;;;4989253;28;20042;-65
2022/06/02 11:34:44;;;;;;;4.22;1.45;;;25.40;93.10;;;;;;4992982;28;20042;-65
2022/06/02 11:37:40;;;;;;;3.97;1.40;;;25.50;92.30;;;;;;4982958;28;20129;-65
2022/06/02 11:40:46;;;;;;;8.60;1.67;;;25.40;92.10;;;;;;4981572;28;20049;-67
2022/06/02 11:43:16;;;;;;;2.72;1.48;;;25.00;91.50;;;;;;4990313;28;20053;-65
2022/06/02 11:45:49;;;;;;;2.38;1.30;;;24.70;91.60;;;;;;4963762;28;20060;-65
2022/06/02 11:48:20;;;;;;;2.92;1.30;;;24.70;91.70;;;;;;4989675;28;20087;-67
2022/06/02 11:50:53;;;;;;;3.33;1.63;;;24.80;91.20;;;;;;5011286;28;20424;-67
2022/06/02 11:53:42;;;;;;;3.17;1.48;;;24.90;90.70;;;;;;5036893;28;20155;-65
2022/06/02 11:56:36;;;;;;;5.10;1.27;;;25.30;91.10;;;;;;5039340;28;20568;-66
2022/06/02 11:59:25;;;;;;;2.92;1.17;;;25.60;88.80;;;;;;5040088;28;20477;-66
2022/06/02 12:02:00;;;;;;;5.28;1.60;;;26.10;86.50;;;;;;5029792;28;20072;-66
2022/06/02 12:04:45;;;;;;;2.55;1.00;;;26.50;86.50;;;;;;5034418;28;20059;-65
2022/06/02 12:07:33;;;;;;;3.80;1.20;;;26.30;84.90;;;;;;5020601;28;20041;-66
2022/06/02 12:10:07;;;;;;;3.28;1.42;;;26.50;82.40;;;;;;5026399;28;20512;-66
2022/06/02 12:12:44;;;;;;;2.22;1.02;;;26.70;82.00;;;;;;5025275;28;20065;-67
2022/06/02 12:15:15;;;;;;;3.22;1.10;;;25.90;81.20;;;;;;5019580;28;20060;-67
2022/06/02 12:17:48;;;;;;;2.35;1.30;;;25.60;82.00;;;;;;5025544;28;20586;-67
2022/06/02 12:20:42;;;;;;;4.47;1.38;;;25.10;82.10;;;;;;5030557;28;20065;-67
2022/06/02 12:23:46;;;;;;;3.42;1.13;;;25.20;84.80;;;;;;5035318;28;20140;-67
2022/06/02 12:26:34;;;;;;;2.85;1.15;;;25.40;85.50;;;;;;5026787;28;20407;-66
2022/06/02 12:29:19;;;;;;;2.85;1.10;;;25.50;84.80;;;;;;5011284;28;20435;-67
2022/06/02 12:32:04;;;;;;;2.33;1.00;;;26.30;82.80;;;;;;5027827;28;20531;-66
2022/06/02 12:34:59;;;;;;;3.92;1.15;;;26.90;81.70;;;;;;5022910;28;20048;-65
2022/06/02 12:38:01;;;;;;;5.03;1.25;;;27.90;79.40;;;;;;5029638;28;20610;-65
2022/06/02 12:40:34;;;;;;;2.85;1.10;;;28.90;78.60;;;;;;5030423;28;20045;-66
2022/06/02 12:43:27;;;;;;;1.52;0.80;;;30.20;76.00;;;;;;5030774;28;20516;-66
2022/06/02 12:46:07;;;;;;;2.72;1.00;;;30.80;73.80;;;;;;5022212;28;20049;-66
2022/06/02 12:49:04;;;;;;;4.88;1.27;;;30.10;72.60;;;;;;5011152;28;20076;-67
2022/06/02 12:51:50;;;;;;;3.38;1.10;;;30.00;71.90;;;;;;5029917;28;20461;-66
2022/06/02 12:54:58;;;;;;;2.88;1.15;;;28.50;75.10;;;;;;5029021;28;20048;-66
2022/06/02 12:57:59;;;;;;;3.40;1.15;;;28.40;73.90;;;;;;5032685;28;20403;-66
2022/06/02 13:00:35;;;;;;;1.05;0.75;;;28.10;73.80;;;;;;5043530;28;20041;-66
2022/06/02 13:03:39;;;;;;;2.58;1.02;;;28.90;72.90;;;;;;5032118;28;20372;-66
2022/06/02 13:06:27;;;;;;;2.38;0.98;;;29.30;72.60;;;;;;5037415;28;20049;-66
2022/06/02 13:09:32;;;;;;;2.15;1.20;;;29.70;71.90;;;;;;5031148;28;20045;-66
2022/06/02 13:12:19;;;;;;;2.63;1.20;;;29.30;70.20;;;;;;5026926;28;20045;-66
2022/06/02 13:14:55;;;;;;;4.43;1.20;;;29.00;70.90;;;;;;5048637;28;20124;-67
2022/06/02 13:17:56;;;;;;;2.73;1.13;;;28.80;70.70;;;;;;5040938;28;20042;-66
2022/06/02 13:20:52;;;;;;;4.28;1.33;;;27.80;70.80;;;;;;5019370;28;20041;-67
2022/06/02 13:23:58;;;;;;;2.03;1.08;;;28.30;71.30;;;;;;5017619;28;20051;-67
2022/06/02 13:26:58;;;;;;;4.90;1.33;;;28.90;70.50;;;;;;5027989;28;20059;-66
2022/06/02 13:30:04;;;;;;;5.93;1.00;;;29.60;69.60;;;;;;5028739;28;20049;-66
2022/06/02 13:33:01;;;;;;;4.45;1.50;;;29.80;69.50;;;;;;5034864;28;20063;-67
2022/06/02 13:35:49;;;;;;;2.20;1.13;;;29.90;69.40;;;;;;5028896;28;20041;-67
2022/06/02 13:38:35;;;;;;;2.28;1.13;;;30.20;68.20;;;;;;5041894;28;20139;-66
2022/06/02 13:41:25;;;;;;;4.20;1.10;;;30.20;68.00;;;;;;5036413;28;20084;-66
2022/06/02 13:44:25;;;;;;;2.97;1.30;;;30.60;67.80;;;;;;4935847;29;20051;-67
2022/06/02 13:47:37;;;;;;;2.08;1.23;;;30.40;66.90;;;;;;4948246;29;20577;-67
2022/06/02 13:50:10;;;;;;;3.03;1.20;;;30.00;67.50;;;;;;4944190;29;20059;-68
2022/06/02 13:52:47;;;;;;;2.15;1.13;;;29.70;66.80;;;;;;4942701;29;20059;-67
2022/06/02 13:58:56;;;;;;;1.90;1.05;;;29.80;66.40;;;;;;4927348;29;20056;-67
2022/06/02 14:01:45;;;;;;;4.65;1.23;;;30.30;66.20;;;;;;4930078;29;20039;-66
2022/06/02 14:04:37;;;;;;;4.45;1.20;;;30.80;64.80;;;;;;4931891;28;20059;-67
2022/06/02 14:07:35;;;;;;;3.22;1.02;;;31.00;64.20;;;;;;4939086;28;20047;-65
2022/06/02 14:10:31;;;;;;;2.08;1.02;;;30.00;64.90;;;;;;4945981;28;20455;-66
2022/06/02 14:13:10;;;;;;;2.53;1.23;;;30.50;65.30;;;;;;4932679;29;20598;-66
2022/06/02 14:15:49;;;;;;;2.15;1.02;;;31.70;63.50;;;;;;4957780;28;20062;-66
2022/06/02 14:18:24;;;;;;;4.53;1.10;;;31.80;62.80;;;;;;4950411;28;20047;-67
2022/06/02 14:21:10;;;;;;;1.88;1.08;;;32.50;62.20;;;;;;4986795;28;20053;-66
2022/06/02 14:23:47;;;;;;;7.15;1.33;;;33.60;59.70;;;;;;5022549;28;20416;-66
2022/06/02 14:26:32;;;;;;;2.70;0.90;;;33.30;60.00;;;;;;5036194;28;20045;-66
2022/06/02 14:29:34;;;;;;;3.47;1.50;;;34.00;59.20;;;;;;5033444;28;20054;-65
2022/06/02 14:32:07;;;;;;;;;;;33.80;59.20;;;;;;5034053;28;20055;-66
2022/06/02 14:34:38;;;;;;;3.45;1.13;;;32.80;59.20;;;;;;5037690;28;19958;-67
2022/06/02 14:37:16;;;;;;;1.83;1.05;;;32.60;59.20;;;;;;5030689;28;20041;-66
2022/06/02 14:40:04;;;;;;;2.47;1.00;;;32.30;59.40;;;;;;5028067;28;20818;-65
2022/06/02 14:43:03;;;;;;;2.17;1.02;;;32.50;59.80;;;;;;5021277;28;20063;-65
2022/06/02 14:45:49;;;;;;;3.40;1.10;;;33.70;58.20;;;;;;5033404;28;20550;-65
2022/06/02 14:48:31;;;;;;;3.08;1.20;;;34.10;56.90;;;;;;5029418;28;20045;-65